Time;durP1;ratioP1;P1;durP2;ratioP2;P2;SDS_P1;SDS_P2;PMS_P1;PMS_P2;Temp;Humidity;BMP_temperature;BMP_pressure;BME280_temperature;BME280_humidity;BME280_pressure;Samples;Min_cycle;Max_cycle;Signal;HPM_P1;HPM_P2
2023/12/03 00:01:47;;;;;;;5.23;4.47;;;;;;;-0.79;71.12;95138.97;5034378;28;20226;-87
2023/12/03 00:04:15;;;;;;;5.67;4.90;;;;;;;-0.81;70.52;95123.09;5033097;28;20208;-87
2023/12/03 00:06:42;;;;;;;5.07;4.53;;;;;;;-0.88;70.85;95128.75;5036290;28;20230;-86
2023/12/03 00:09:09;;;;;;;5.33;4.60;;;;;;;-0.88;71.43;95146.44;5036058;28;20245;-87
2023/12/03 00:11:38;;;;;;;6.37;5.00;;;;;;;-0.85;71.27;95144.47;5036352;28;20226;-87
2023/12/03 00:14:05;;;;;;;5.57;4.47;;;;;;;-0.88;71.10;95143.91;5035422;28;20209;-87
2023/12/03 00:16:32;;;;;;;5.37;4.87;;;;;;;-0.85;71.10;95147.00;5034938;28;20206;-87
2023/12/03 00:18:58;;;;;;;5.93;5.33;;;;;;;-0.91;71.08;95142.41;5029561;28;20285;-88
2023/12/03 00:21:26;;;;;;;6.60;5.50;;;;;;;-1.09;70.50;95121.88;5023715;28;20301;-87
2023/12/03 00:23:53;;;;;;;6.77;5.07;;;;;;;-1.13;70.43;95128.09;5026572;28;20685;-87
2023/12/03 00:26:21;;;;;;;6.90;5.33;;;;;;;-1.13;70.34;95123.03;5026042;28;20202;-87
2023/12/03 00:28:50;;;;;;;6.40;5.67;;;;;;;-1.11;70.32;95127.97;5015726;28;20218;-87
2023/12/03 00:31:17;;;;;;;6.80;5.50;;;;;;;-1.07;69.80;95115.00;5015389;28;20597;-88
2023/12/03 00:33:46;;;;;;;7.20;5.40;;;;;;;-1.09;69.44;95086.53;5017386;28;20203;-86
2023/12/03 00:36:15;;;;;;;7.43;5.70;;;;;;;-1.06;69.75;95093.88;5024960;28;20203;-88
2023/12/03 00:38:43;;;;;;;6.47;5.43;;;;;;;-1.06;69.43;95103.97;5017449;28;20718;-88
2023/12/03 00:41:11;;;;;;;5.60;4.97;;;;;;;-1.03;69.75;95104.66;5027292;28;20220;-86
2023/12/03 00:43:40;;;;;;;6.97;5.40;;;;;;;-1.03;69.68;95118.09;5034897;28;20186;-87
2023/12/03 00:46:09;;;;;;;6.80;5.80;;;;;;;-1.09;69.49;95108.44;5034298;28;20198;-87
2023/12/03 00:48:39;;;;;;;7.07;5.73;;;;;;;-1.08;69.62;95122.69;5035019;28;20214;-87
2023/12/03 00:51:06;;;;;;;6.93;5.80;;;;;;;-1.10;70.05;95143.00;5031150;28;20284;-89
2023/12/03 00:53:36;;;;;;;6.20;5.50;;;;;;;-1.12;70.09;95139.00;5021694;28;20198;-88
2023/12/03 00:56:04;;;;;;;6.70;5.27;;;;;;;-1.10;69.58;95129.56;5034517;28;20646;-88
2023/12/03 00:58:34;;;;;;;7.30;6.00;;;;;;;-1.10;69.71;95134.63;5035784;28;20224;-88
2023/12/03 01:01:04;;;;;;;7.80;5.77;;;;;;;-1.13;69.66;95120.50;5032907;28;20225;-88
2023/12/03 01:03:30;;;;;;;7.37;6.23;;;;;;;-1.20;70.00;95134.53;5024209;28;20230;-89
2023/12/03 01:05:57;;;;;;;6.50;5.43;;;;;;;-1.25;70.15;95150.94;5019990;28;20289;-87
2023/12/03 01:08:24;;;;;;;6.23;5.63;;;;;;;-1.24;70.02;95155.09;5028443;28;20229;-88
2023/12/03 01:10:50;;;;;;;5.93;5.13;;;;;;;-1.23;70.09;95162.53;5013050;28;20659;-88
2023/12/03 01:13:18;;;;;;;7.00;5.83;;;;;;;-1.37;70.15;95160.25;5011984;28;20202;-87
2023/12/03 01:15:45;;;;;;;6.90;5.73;;;;;;;-1.40;70.32;95184.00;5012495;28;20697;-88
2023/12/03 01:18:11;;;;;;;7.80;6.30;;;;;;;-1.37;71.03;95205.69;5012409;28;20314;-88
2023/12/03 01:20:38;;;;;;;6.90;5.73;;;;;;;-1.39;70.92;95215.09;5030319;28;20198;-87
2023/12/03 01:23:05;;;;;;;7.83;6.13;;;;;;;-1.36;70.88;95226.72;5023493;28;20886;-88
2023/12/03 01:25:32;;;;;;;7.27;5.80;;;;;;;-1.41;70.87;95224.50;5017536;28;20199;-88
2023/12/03 01:27:58;;;;;;;7.33;6.17;;;;;;;-1.45;70.88;95215.56;5011898;28;20195;-88
2023/12/03 01:30:29;;;;;;;8.77;6.07;;;;;;;-1.51;70.96;95216.78;5012155;28;20214;-88
2023/12/03 01:32:55;;;;;;;7.53;6.13;;;;;;;-1.60;71.09;95219.19;5014054;28;20210;-87
2023/12/03 01:35:22;;;;;;;7.27;6.30;;;;;;;-1.64;70.92;95228.72;5023143;28;20200;-88
2023/12/03 01:37:49;;;;;;;7.90;6.33;;;;;;;-1.62;70.85;95228.59;5023051;28;20199;-88
2023/12/03 01:40:15;;;;;;;7.77;6.03;;;;;;;-1.77;71.06;95222.94;5020743;28;20588;-87
2023/12/03 01:42:42;;;;;;;7.27;5.87;;;;;;;-1.79;71.04;95239.91;5017104;28;20230;-88
2023/12/03 01:45:09;;;;;;;7.00;5.77;;;;;;;-1.83;70.88;95238.53;5022058;28;20202;-88
2023/12/03 01:47:37;;;;;;;6.70;5.80;;;;;;;-1.89;71.41;95239.75;5031248;28;20199;-87
2023/12/03 01:50:07;;;;;;;8.83;6.27;;;;;;;-1.81;71.20;95256.88;5030704;28;20309;-88
2023/12/03 01:52:34;;;;;;;6.43;5.60;;;;;;;-1.74;71.06;95253.00;5030943;28;20905;-89
2023/12/03 01:55:03;;;;;;;7.33;6.10;;;;;;;-1.63;70.83;95242.13;5026096;28;20661;-88
2023/12/03 01:57:30;;;;;;;8.33;6.03;;;;;;;-1.59;70.66;95224.13;5028071;28;20214;-88
2023/12/03 01:59:57;;;;;;;8.00;6.40;;;;;;;-1.56;70.07;95213.81;5011439;28;20225;-88
2023/12/03 02:02:26;;;;;;;7.87;6.27;;;;;;;-1.57;69.86;95192.03;5011434;28;20706;-87
2023/12/03 02:04:58;;;;;;;7.83;6.20;;;;;;;-1.59;69.73;95186.28;5012318;28;20290;-88
2023/12/03 02:07:24;;;;;;;6.93;5.53;;;;;;;-1.58;69.57;95194.66;5012546;28;20202;-88
2023/12/03 02:09:51;;;;;;;7.33;5.60;;;;;;;-1.59;69.70;95188.00;5030555;28;20591;-88
2023/12/03 02:12:18;;;;;;;8.80;6.33;;;;;;;-1.61;69.92;95197.41;5019261;28;20233;-88
2023/12/03 02:14:45;;;;;;;7.67;5.77;;;;;;;-1.61;69.71;95190.63;5022143;28;20202;-87
2023/12/03 02:17:11;;;;;;;8.30;6.63;;;;;;;-1.62;69.85;95195.78;5030079;28;20205;-87
2023/12/03 02:19:38;;;;;;;6.97;5.80;;;;;;;-1.64;69.78;95180.75;5016718;28;20195;-87
2023/12/03 02:22:05;;;;;;;7.53;6.07;;;;;;;-1.65;69.38;95179.16;5016608;28;20222;-88
2023/12/03 02:24:34;;;;;;;7.83;6.00;;;;;;;-1.68;69.25;95166.75;5020576;28;20581;-88
2023/12/03 02:27:01;;;;;;;7.03;5.60;;;;;;;-1.76;69.67;95184.19;5014884;28;20293;-88
2023/12/03 02:29:27;;;;;;;8.03;5.77;;;;;;;-1.75;69.52;95185.81;5014180;28;20219;-87
2023/12/03 02:31:54;;;;;;;6.87;5.67;;;;;;;-1.77;69.76;95185.09;5015921;28;20230;-87
2023/12/03 02:34:20;;;;;;;7.73;6.00;;;;;;;-1.76;69.77;95191.75;5019174;28;20195;-88
2023/12/03 02:36:47;;;;;;;7.00;5.97;;;;;;;-1.76;69.61;95186.72;5011366;28;20246;-87
2023/12/03 02:39:17;;;;;;;7.40;6.27;;;;;;;-1.78;69.37;95180.97;5029365;28;20238;-87
2023/12/03 02:41:48;;;;;;;7.93;6.17;;;;;;;-1.82;69.39;95193.00;5028762;28;20836;-87
2023/12/03 02:44:14;;;;;;;8.30;6.50;;;;;;;-1.80;69.85;95193.69;5020783;28;20226;-88
2023/12/03 02:46:41;;;;;;;6.70;5.90;;;;;;;-1.75;69.76;95203.47;5010627;28;20261;-89
2023/12/03 02:49:07;;;;;;;6.90;5.80;;;;;;;-1.73;69.36;95194.03;5010955;28;20311;-87
2023/12/03 02:51:36;;;;;;;7.43;6.20;;;;;;;-1.69;69.54;95197.94;5010472;28;20210;-87
2023/12/03 02:54:04;;;;;;;8.57;6.40;;;;;;;-1.68;69.38;95186.94;5019341;28;20198;-88
2023/12/03 02:56:31;;;;;;;7.93;6.40;;;;;;;-1.65;69.01;95186.72;5029677;28;20590;-88
2023/12/03 02:59:02;;;;;;;7.17;6.10;;;;;;;-1.67;69.01;95182.69;5029936;28;20221;-87
2023/12/03 03:01:28;;;;;;;8.77;6.20;;;;;;;-1.68;69.10;95179.38;5025577;28;20651;-87
2023/12/03 03:03:55;;;;;;;6.73;5.77;;;;;;;-1.83;69.07;95168.69;5019754;28;20213;-87
2023/12/03 03:06:22;;;;;;;7.63;5.97;;;;;;;-1.85;69.58;95195.75;5018924;28;20187;-87
2023/12/03 03:08:49;;;;;;;7.33;5.97;;;;;;;-1.79;69.97;95207.91;5023007;28;20214;-87
2023/12/03 03:11:16;;;;;;;7.63;6.10;;;;;;;-1.88;69.44;95192.63;5029363;28;20233;-87
2023/12/03 03:13:42;;;;;;;6.53;5.80;;;;;;;-1.98;69.45;95194.22;5028248;28;20196;-87
2023/12/03 03:16:11;;;;;;;7.77;6.07;;;;;;;-1.99;69.63;95211.06;5021266;28;20214;-88
2023/12/03 03:18:37;;;;;;;7.07;5.87;;;;;;;-1.93;69.66;95215.69;5010584;28;20201;-87
2023/12/03 03:21:04;;;;;;;7.60;6.23;;;;;;;-1.89;69.30;95201.09;5010308;28;20203;-87
2023/12/03 03:23:32;;;;;;;6.53;5.27;;;;;;;-1.89;69.25;95194.34;5018127;28;20199;-88
2023/12/03 03:25:59;;;;;;;6.80;5.40;;;;;;;-1.90;69.24;95190.22;5010136;28;20194;-87
2023/12/03 03:28:25;;;;;;;6.37;5.40;;;;;;;-1.90;69.14;95187.69;5017123;28;20194;-87
2023/12/03 03:30:52;;;;;;;7.37;5.87;;;;;;;-1.93;68.61;95177.03;5019632;28;20224;-88
2023/12/03 03:33:20;;;;;;;7.50;5.57;;;;;;;-1.93;68.80;95182.09;5021881;28;20281;-87
2023/12/03 03:35:46;;;;;;;9.07;6.40;;;;;;;-1.96;68.69;95179.78;5012037;28;20229;-88
2023/12/03 03:38:13;;;;;;;6.47;5.57;;;;;;;-1.97;68.63;95178.97;5010025;28;20543;-87
2023/12/03 03:40:39;;;;;;;8.10;6.00;;;;;;;-1.95;68.74;95184.72;5010368;28;20290;-89
2023/12/03 03:43:06;;;;;;;7.77;6.40;;;;;;;-1.97;68.47;95185.75;5013756;28;20717;-88
2023/12/03 03:45:33;;;;;;;7.27;5.90;;;;;;;-1.98;68.90;95184.13;5029316;28;20578;-88
2023/12/03 03:48:00;;;;;;;7.00;5.90;;;;;;;-1.92;68.32;95183.66;5018725;28;20208;-87
2023/12/03 03:50:28;;;;;;;7.43;6.07;;;;;;;-1.93;68.57;95180.38;5016232;28;20270;-87
2023/12/03 03:53:00;;;;;;;7.30;5.70;;;;;;;-1.97;67.84;95161.31;5018277;28;20309;-88
2023/12/03 03:55:26;;;;;;;7.87;6.17;;;;;;;-2.00;67.96;95151.44;5025385;28;20305;-89
2023/12/03 03:57:53;;;;;;;7.67;6.17;;;;;;;-2.02;67.88;95155.78;5010278;28;20290;-88
2023/12/03 04:00:20;;;;;;;9.30;6.20;;;;;;;-2.03;68.36;95161.75;5009959;28;20248;-88
2023/12/03 04:02:47;;;;;;;6.77;6.07;;;;;;;-2.08;68.01;95174.69;5016387;28;20245;-88
2023/12/03 04:05:13;;;;;;;7.13;6.10;;;;;;;-2.05;68.49;95178.72;5024399;28;20202;-88
2023/12/03 04:07:44;;;;;;;7.23;6.17;;;;;;;-2.08;68.26;95178.94;5020124;28;20309;-88
2023/12/03 04:10:14;;;;;;;7.87;5.73;;;;;;;-2.09;68.23;95175.59;5028215;28;20218;-88
2023/12/03 04:12:41;;;;;;;6.87;5.77;;;;;;;-2.08;67.91;95163.78;5011485;28;20305;-88
2023/12/03 04:15:08;;;;;;;7.20;5.97;;;;;;;-2.09;68.12;95178.13;5009810;28;20202;-87
2023/12/03 04:17:38;;;;;;;9.13;6.23;;;;;;;-2.11;68.11;95164.00;5011058;28;20567;-88
2023/12/03 04:20:06;;;;;;;8.00;6.03;;;;;;;-2.16;67.94;95159.31;5013399;28;20575;-87
2023/12/03 04:22:33;;;;;;;7.73;6.30;;;;;;;-2.28;68.16;95172.78;5018588;28;20214;-87
2023/12/03 04:25:03;;;;;;;7.67;6.33;;;;;;;-2.25;68.47;95192.75;5018508;28;20206;-87
2023/12/03 04:27:30;;;;;;;8.60;6.23;;;;;;;-2.24;68.42;95198.59;5024403;28;20205;-87
2023/12/03 04:29:59;;;;;;;8.37;6.03;;;;;;;-2.21;68.74;95213.50;5036600;28;20287;-87
2023/12/03 04:32:28;;;;;;;7.97;6.07;;;;;;;-2.25;68.35;95202.00;5027000;28;20281;-88
2023/12/03 04:34:54;;;;;;;9.00;6.80;;;;;;;-2.22;68.73;95214.41;5018998;28;20657;-87
2023/12/03 04:37:21;;;;;;;7.57;6.07;;;;;;;-2.20;68.54;95195.75;5022970;28;20278;-87
2023/12/03 04:39:47;;;;;;;7.63;6.37;;;;;;;-2.29;68.50;95185.50;5016664;28;20199;-88
2023/12/03 04:42:15;;;;;;;7.83;6.67;;;;;;;-2.39;68.47;95197.94;5016785;28;20298;-89
2023/12/03 04:44:44;;;;;;;21.83;15.87;;;;;;;-2.46;69.02;95216.94;5013289;28;20214;-88
2023/12/03 04:47:10;;;;;;;9.87;8.03;;;;;;;-2.47;69.22;95236.28;5012571;28;20199;-88
2023/12/03 04:49:37;;;;;;;8.60;6.60;;;;;;;-2.50;69.18;95245.75;5012821;28;20221;-87
2023/12/03 04:52:03;;;;;;;6.87;5.83;;;;;;;-2.55;69.14;95241.06;5019668;28;20312;-88
2023/12/03 04:54:30;;;;;;;6.37;5.57;;;;;;;-2.48;69.68;95269.16;5027664;28;20586;-88
2023/12/03 04:56:58;;;;;;;7.17;5.80;;;;;;;-2.43;69.58;95292.31;5013107;28;20221;-87
2023/12/03 04:59:26;;;;;;;7.40;5.70;;;;;;;-2.31;69.72;95293.22;5013323;28;20214;-87
2023/12/03 05:01:53;;;;;;;8.03;6.10;;;;;;;-2.26;69.92;95293.69;5020021;28;20221;-87
2023/12/03 05:04:19;;;;;;;7.30;5.70;;;;;;;-2.20;69.69;95295.78;5031705;28;20191;-87
2023/12/03 05:06:46;;;;;;;6.27;5.40;;;;;;;-2.16;69.41;95294.69;5021481;28;20687;-89
2023/12/03 05:09:15;;;;;;;6.43;5.07;;;;;;;-2.21;69.54;95294.19;5026670;28;20605;-87
2023/12/03 05:11:42;;;;;;;8.27;6.07;;;;;;;-2.13;69.82;95315.44;5021429;28;20225;-87
2023/12/03 05:14:08;;;;;;;7.73;6.13;;;;;;;-2.09;70.10;95316.81;5025012;28;20351;-89
2023/12/03 05:16:38;;;;;;;7.93;6.43;;;;;;;-2.04;69.86;95323.28;5018720;28;20574;-89
2023/12/03 05:19:05;;;;;;;7.63;6.07;;;;;;;-2.04;69.88;95319.03;5012617;28;20230;-88
2023/12/03 05:21:32;;;;;;;8.30;6.37;;;;;;;-2.25;70.28;95323.84;5020492;28;20749;-87
2023/12/03 05:23:59;;;;;;;7.87;6.07;;;;;;;-2.24;70.88;95365.78;5014947;28;20229;-87
2023/12/03 05:26:26;;;;;;;8.37;6.40;;;;;;;-2.20;71.11;95381.53;5024311;28;20198;-88
2023/12/03 05:28:53;;;;;;;7.57;5.87;;;;;;;-2.16;71.36;95395.53;5012266;28;20199;-87
2023/12/03 05:31:19;;;;;;;7.80;6.03;;;;;;;-2.10;71.48;95403.47;5018361;28;20840;-87
2023/12/03 05:33:47;;;;;;;8.10;6.13;;;;;;;-2.10;71.02;95400.94;5031077;28;20241;-88
2023/12/03 05:36:20;;;;;;;8.50;6.10;;;;;;;-2.15;70.82;95395.44;5017942;28;20752;-87
2023/12/03 05:38:47;;;;;;;7.47;5.93;;;;;;;-2.08;71.01;95396.63;5012285;28;20237;-87
2023/12/03 05:41:14;;;;;;;7.43;5.87;;;;;;;-2.02;71.27;95408.00;5017456;28;20201;-87
2023/12/03 05:43:40;;;;;;;6.77;5.47;;;;;;;-1.97;70.80;95402.66;5019096;28;20260;-87
2023/12/03 05:46:11;;;;;;;7.27;6.13;;;;;;;-1.95;70.51;95383.19;5010926;28;20209;-88
2023/12/03 05:48:42;;;;;;;7.63;5.60;;;;;;;-1.91;70.50;95394.66;5011930;28;20670;-87
2023/12/03 05:51:11;;;;;;;7.47;5.77;;;;;;;-1.86;70.48;95393.44;5016410;28;20218;-87
2023/12/03 05:53:38;;;;;;;7.67;6.23;;;;;;;-1.84;70.16;95384.03;5028680;28;20268;-87
2023/12/03 05:56:09;;;;;;;8.00;6.17;;;;;;;-1.92;69.92;95353.47;5012429;28;20257;-88
2023/12/03 05:58:35;;;;;;;6.60;5.80;;;;;;;-1.96;70.02;95361.38;5022876;28;20817;-89
2023/12/03 06:01:02;;;;;;;8.43;6.13;;;;;;;-1.97;70.31;95367.34;5014743;28;20191;-88
2023/12/03 06:03:29;;;;;;;11.50;6.37;;;;;;;-1.99;70.52;95376.72;5017936;28;20201;-88
2023/12/03 06:05:55;;;;;;;7.70;5.93;;;;;;;-2.01;70.76;95399.53;5029579;28;20693;-88
2023/12/03 06:08:24;;;;;;;7.93;6.47;;;;;;;-2.05;70.53;95380.47;5023578;28;20806;-89
2023/12/03 06:10:50;;;;;;;8.23;6.60;;;;;;;-2.00;70.62;95397.81;5024143;28;20870;-89
2023/12/03 06:13:17;;;;;;;8.33;6.13;;;;;;;-1.94;70.74;95404.97;5018600;28;20226;-88
2023/12/03 06:15:44;;;;;;;7.87;6.40;;;;;;;-1.93;70.18;95389.75;5019648;28;20199;-89
2023/12/03 06:18:11;;;;;;;7.23;5.80;;;;;;;-1.92;69.66;95356.00;5022708;28;20202;-89
2023/12/03 06:20:40;;;;;;;12.70;6.47;;;;;;;-1.52;90.02;95853.84;5024327;28;20197;-90
2023/12/03 06:23:06;;;;;;;8.97;7.00;;;;;;;-0.97;100.00;96201.59;5021065;28;20293;-88
2023/12/03 06:25:34;;;;;;;7.23;5.93;;;;;;;-1.01;79.94;95623.25;5016684;28;20194;-89
2023/12/03 06:28:00;;;;;;;7.13;5.77;;;;;;;-1.25;73.19;95342.88;5012307;28;20203;-88
2023/12/03 06:30:27;;;;;;;7.40;6.10;;;;;;;-1.42;71.80;95274.19;5025483;28;20310;-88
2023/12/03 06:32:56;;;;;;;8.37;6.67;;;;;;;-1.54;71.22;95244.00;5021988;28;20210;-88
2023/12/03 06:35:22;;;;;;;7.80;6.03;;;;;;;-1.60;70.90;95232.63;5026787;28;20195;-89
2023/12/03 06:37:48;;;;;;;6.47;5.50;;;;;;;-1.70;70.53;95234.19;5011185;28;20198;-89
2023/12/03 06:40:16;;;;;;;8.03;6.50;;;;;;;-1.78;70.47;95223.88;5020792;28;20198;-88
2023/12/03 06:42:44;;;;;;;8.37;5.93;;;;;;;-1.79;71.06;95242.44;5029929;28;20218;-88
2023/12/03 06:45:12;;;;;;;7.80;6.30;;;;;;;-1.81;71.22;95256.88;5027709;28;20256;-88
2023/12/03 06:47:38;;;;;;;7.73;6.60;;;;;;;-1.82;71.16;95255.28;5019430;28;20207;-88
2023/12/03 06:50:06;;;;;;;8.07;6.63;;;;;;;-1.82;71.38;95272.94;5019952;28;20221;-88
2023/12/03 06:52:32;;;;;;;7.20;6.23;;;;;;;-1.82;71.71;95295.63;5018485;28;20217;-89
2023/12/03 06:54:59;;;;;;;7.87;6.50;;;;;;;-1.78;71.47;95304.59;5018714;28;20202;-88
2023/12/03 06:57:26;;;;;;;8.93;6.50;;;;;;;-1.75;71.77;95324.56;5019412;28;20198;-88
2023/12/03 06:59:56;;;;;;;8.20;6.30;;;;;;;-1.71;71.60;95335.22;5018136;28;20298;-88
2023/12/03 07:02:22;;;;;;;7.87;6.67;;;;;;;-1.70;71.65;95335.13;5020471;28;20218;-88
2023/12/03 07:04:49;;;;;;;8.23;6.73;;;;;;;-1.67;71.89;95357.63;5020895;28;20288;-88
2023/12/03 07:07:15;;;;;;;8.60;6.73;;;;;;;-1.68;71.86;95356.03;5019175;28;20206;-87
2023/12/03 07:09:42;;;;;;;13.23;6.67;;;;;;;-1.36;93.41;95934.53;5018917;28;20706;-88
2023/12/03 07:12:21;;;;;;;8.97;7.03;;;;;;;-0.84;100.00;96252.22;5025107;28;20748;-90
2023/12/03 07:19:00;;;;;;;7.77;6.43;;;;;;;-0.99;72.85;95415.06;4984112;28;20196;-89
2023/12/03 07:24:29;;;;;;;7.87;6.10;;;;;;;-1.15;71.97;95361.47;4211414;26;20261;-90
2023/12/03 07:27:00;;;;;;;8.07;6.50;;;;;;;-1.15;71.53;95348.84;5008890;28;20202;-90
2023/12/03 07:29:54;;;;;;;8.63;6.37;;;;;;;-1.12;71.36;95346.91;5017153;28;20735;-91
2023/12/03 07:35:49;;;;;;;11.93;7.10;;;;;;;-1.13;71.80;95364.69;5005856;28;20211;-90
2023/12/03 07:38:21;;;;;;;9.97;7.47;;;;;;;-1.15;71.51;95361.47;5027721;28;20209;-90
2023/12/03 07:40:49;;;;;;;8.53;6.77;;;;;;;-1.14;71.43;95361.38;5009783;28;20251;-90
2023/12/03 07:43:31;;;;;;;9.57;7.27;;;;;;;-1.14;71.57;95373.19;5009104;28;20223;-91
2023/12/03 07:46:17;;;;;;;;;;;;;;;;;;;;;
2023/12/03 07:49:05;;;;;;;7.30;6.37;;;;;;;-1.12;71.19;95384.00;5009925;28;20199;-91
2023/12/03 07:51:47;;;;;;;9.13;6.80;;;;;;;-1.08;71.19;95380.34;5009166;28;20257;-90
2023/12/03 07:54:20;;;;;;;9.40;7.20;;;;;;;-1.02;70.80;95374.06;5008706;28;20214;-89
2023/12/03 07:56:50;;;;;;;8.47;6.87;;;;;;;-0.89;70.78;95383.16;5008681;28;20198;-89
2023/12/03 08:02:50;;;;;;;7.80;6.40;;;;;;;-0.59;70.34;95377.56;5022063;28;20221;-90
2023/12/03 08:05:34;;;;;;;7.23;6.17;;;;;;;-0.39;69.74;95348.28;5017541;28;20278;-92
2023/12/03 08:08:14;;;;;;;7.57;6.07;;;;;;;-0.35;68.88;95309.97;4999619;28;20713;-90
2023/12/03 08:10:57;;;;;;;8.47;6.37;;;;;;;-0.27;68.88;95296.75;5013443;28;20222;-89
2023/12/03 08:13:58;;;;;;;9.13;7.00;;;;;;;-0.28;68.17;95276.63;5022775;28;20225;-90
2023/12/03 08:16:36;;;;;;;8.33;7.03;;;;;;;-0.24;68.39;95281.34;5012006;28;20258;-91
2023/12/03 08:19:14;;;;;;;8.33;7.33;;;;;;;-0.28;68.10;95264.78;5027554;28;20665;-90
2023/12/03 08:22:12;;;;;;;7.47;6.63;;;;;;;-0.35;68.27;95258.59;5020737;28;20878;-90
2023/12/03 08:24:52;;;;;;;8.33;6.70;;;;;;;-0.40;67.96;95246.31;5018613;28;20205;-91
2023/12/03 08:27:27;;;;;;;8.57;6.83;;;;;;;-0.40;68.05;95260.69;5011601;28;20201;-90
2023/12/03 08:30:13;;;;;;;8.30;6.80;;;;;;;-0.43;67.77;95240.69;5007976;28;20276;-90
2023/12/03 08:32:43;;;;;;;8.70;7.40;;;;;;;-0.38;67.92;95253.75;5013406;28;20223;-90
2023/12/03 08:35:09;;;;;;;8.20;6.57;;;;;;;-0.35;67.98;95254.31;5015753;28;20195;-90
2023/12/03 08:37:36;;;;;;;8.27;6.77;;;;;;;-0.33;67.80;95248.34;5016034;28;20194;-89
2023/12/03 08:40:03;;;;;;;9.17;7.20;;;;;;;-0.27;68.13;95279.03;5012414;28;20207;-90
2023/12/03 08:42:39;;;;;;;7.57;6.70;;;;;;;-0.23;68.29;95287.19;5010813;28;20705;-90
2023/12/03 08:45:10;;;;;;;8.40;7.10;;;;;;;-0.17;68.26;95297.63;5017775;28;20209;-90
2023/12/03 08:47:50;;;;;;;7.53;6.50;;;;;;;-0.10;67.96;95295.44;5022412;28;20741;-89
2023/12/03 08:50:27;;;;;;;8.67;7.30;;;;;;;-0.06;68.49;95314.53;5031248;28;20202;-89
2023/12/03 08:52:53;;;;;;;9.07;7.23;;;;;;;0.04;68.37;95317.13;5031038;28;20217;-89
2023/12/03 08:55:20;;;;;;;7.67;6.73;;;;;;;0.13;68.13;95314.72;5010248;28;20261;-89
2023/12/03 08:57:54;;;;;;;8.57;7.17;;;;;;;0.24;68.13;95307.06;5013606;28;20265;-89
2023/12/03 09:00:41;;;;;;;7.90;6.93;;;;;;;0.46;67.86;95328.16;5030617;28;20744;-89
2023/12/03 09:03:19;;;;;;;8.43;7.43;;;;;;;0.57;67.36;95290.97;5011994;28;20226;-90
2023/12/03 09:05:47;;;;;;;12.00;8.23;;;;;;;0.70;66.66;95262.91;5011833;28;20265;-89
2023/12/03 09:08:14;;;;;;;9.17;7.60;;;;;;;0.87;66.07;95242.06;5025685;28;20617;-84
2023/12/03 09:10:43;;;;;;;10.37;7.57;;;;;;;1.15;66.88;95293.03;5009711;28;20250;-90
2023/12/03 09:13:11;;;;;;;8.90;6.90;;;;;;;1.44;65.65;95229.72;5013003;28;20222;-90
2023/12/03 09:16:07;;;;;;;8.70;7.00;;;;;;;1.74;64.57;95184.78;5014941;28;20203;-89
2023/12/03 09:18:48;;;;;;;;;;;;;;;;;;;;;
2023/12/03 09:21:25;;;;;;;7.63;6.50;;;;;;;2.31;63.28;95127.28;5021834;28;20203;-89
2023/12/03 09:26:57;;;;;;;8.50;6.70;;;;;;;2.67;61.84;95069.81;5006448;28;20753;-88
2023/12/03 09:29:24;;;;;;;7.83;6.73;;;;;;;2.89;61.19;95029.66;5001018;28;20198;-89
2023/12/03 09:32:29;;;;;;;9.37;6.60;;;;;;;3.07;60.66;95031.31;5012783;28;20313;-89
2023/12/03 09:35:29;;;;;;;8.43;6.93;;;;;;;3.04;59.30;94945.16;5024391;28;20195;-89
2023/12/03 09:38:24;;;;;;;8.67;6.50;;;;;;;3.10;59.61;94951.38;5020199;28;20287;-88
2023/12/03 09:41:09;;;;;;;20.70;15.30;;;;;;;3.01;60.09;95003.13;5000493;28;20202;-88
2023/12/03 09:46:38;;;;;;;8.77;7.33;;;;;;;3.03;60.48;95021.56;4965521;28;20199;-89
2023/12/03 09:49:30;;;;;;;7.23;6.30;;;;;;;2.99;59.59;94985.47;4969036;28;20211;-89
2023/12/03 09:52:23;;;;;;;;;;;;;;;;;;;;;
2023/12/03 09:54:53;;;;;;;9.73;6.33;;;;;;;2.93;58.97;94921.66;5015632;28;20195;-90
2023/12/03 09:57:42;;;;;;;;;;;;;;;;;;;;;
2023/12/03 10:00:11;;;;;;;7.60;6.60;;;;;;;2.94;59.16;94929.16;5005578;28;20203;-89
2023/12/03 10:02:59;;;;;;;8.03;7.00;;;;;;;2.96;59.53;94955.22;5005233;28;20219;-89
2023/12/03 10:06:05;;;;;;;8.43;6.97;;;;;;;2.90;58.55;94901.63;5011244;28;20222;-89
2023/12/03 10:08:38;;;;;;;7.23;6.50;;;;;;;2.79;59.10;94897.56;5018151;28;20227;-89
2023/12/03 10:11:29;;;;;;;10.40;8.43;;;;;;;2.67;59.58;94929.25;5010483;28;20281;-89
2023/12/03 10:14:09;;;;;;;7.77;6.63;;;;;;;2.43;59.99;94958.53;5011747;28;20272;-88
2023/12/03 10:17:08;;;;;;;7.73;6.70;;;;;;;2.62;60.98;95022.88;5017388;28;20226;-89
2023/12/03 10:19:48;;;;;;;8.03;7.07;;;;;;;2.82;61.28;95056.63;5028771;28;20265;-89
2023/12/03 10:22:45;;;;;;;9.43;7.07;;;;;;;2.91;60.61;95056.56;5026351;28;20305;-89
2023/12/03 10:28:52;;;;;;;;;;;;;;;;;;;;;
2023/12/03 10:35:06;;;;;;;8.07;6.60;;;;;;;2.32;61.96;95084.91;4945909;28;20891;-89
2023/12/03 10:38:04;;;;;;;8.87;7.30;;;;;;;2.37;62.32;95126.72;4965635;28;20683;-89
2023/12/03 10:40:42;;;;;;;7.47;6.10;;;;;;;2.33;61.98;95114.44;4968028;28;20197;-91
2023/12/03 10:43:15;;;;;;;11.17;7.80;;;;;;;2.33;61.86;95115.25;4973675;28;20221;-88
2023/12/03 10:45:55;;;;;;;8.30;7.17;;;;;;;2.30;61.97;95089.34;5008122;28;20212;-90
2023/12/03 10:48:41;;;;;;;10.50;6.77;;;;;;;2.43;61.99;95095.72;5007651;28;20274;-90
2023/12/03 10:55:08;;;;;;;10.60;7.90;;;;;;;2.70;62.51;95144.94;5005124;28;20632;-90
2023/12/03 10:58:32;;;;;;;;;;;;;;;;;;;;;
2023/12/03 11:04:55;;;;;;;8.23;7.27;;;;;;;2.74;61.63;95129.28;5007769;28;20234;-91
2023/12/03 11:08:03;;;;;;;10.30;6.90;;;;;;;2.86;62.34;95142.63;5002733;28;20240;-90
2023/12/03 11:10:39;;;;;;;8.20;7.00;;;;;;;2.84;63.16;95200.44;5013047;28;20206;-89
2023/12/03 11:13:20;;;;;;;8.33;7.07;;;;;;;2.89;62.82;95198.25;5021411;28;20233;-90
2023/12/03 11:15:58;;;;;;;8.23;7.20;;;;;;;2.97;62.71;95190.75;5015902;28;20198;-90
2023/12/03 11:18:35;;;;;;;8.30;7.00;;;;;;;3.09;62.93;95194.72;5020861;28;20209;-91
2023/12/03 11:21:20;;;;;;;7.73;6.93;;;;;;;3.13;62.83;95198.59;5009702;28;20209;-91
2023/12/03 11:24:12;;;;;;;7.87;7.03;;;;;;;3.21;62.29;95180.09;5011559;28;20602;-90
2023/12/03 11:27:04;;;;;;;9.63;8.10;;;;;;;3.26;62.46;95184.75;5002779;28;20424;-89
2023/12/03 11:33:43;;;;;;;;;;;;;;;;;;;;;
2023/12/03 11:36:37;;;;;;;8.93;7.60;;;;;;;3.22;61.75;95158.00;4873636;29;20228;-90
2023/12/03 11:39:27;;;;;;;8.33;7.53;;;;;;;3.25;61.98;95161.06;4983055;28;20209;-89
2023/12/03 11:41:59;;;;;;;9.17;7.90;;;;;;;3.28;62.07;95175.22;5012542;28;20256;-91
2023/12/03 11:44:29;;;;;;;8.47;7.53;;;;;;;3.27;62.81;95201.63;5010188;28;20191;-90
2023/12/03 11:50:02;;;;;;;9.50;7.23;;;;;;;3.27;62.26;95176.19;5007780;28;20229;-91
2023/12/03 11:52:29;;;;;;;21.60;16.43;;;;;;;3.31;61.91;95160.47;5005609;28;20233;-89
2023/12/03 11:55:28;;;;;;;17.60;13.23;;;;;;;3.20;65.01;95282.78;5009954;28;20226;-90
2023/12/03 11:58:32;;;;;;;11.97;9.23;;;;;;;3.06;66.90;95430.72;5008482;28;20227;-89
2023/12/03 12:04:19;;;;;;;10.43;8.43;;;;;;;2.86;64.74;95307.88;5008881;28;20206;-91
2023/12/03 12:06:48;;;;;;;9.67;8.00;;;;;;;2.98;63.74;95252.59;5074385;22;20279;-84
2023/12/03 12:09:31;;;;;;;9.10;7.80;;;;;;;2.87;64.08;95256.09;5033836;28;20226;-84
2023/12/03 12:12:02;;;;;;;8.97;7.87;;;;;;;3.00;64.35;95276.13;5031379;28;20245;-85
2023/12/03 12:14:29;;;;;;;9.20;7.90;;;;;;;3.03;63.99;95260.59;5031700;28;20207;-85
2023/12/03 12:16:58;;;;;;;10.73;8.63;;;;;;;3.04;64.20;95259.66;5025017;28;20239;-84
2023/12/03 12:19:29;;;;;;;10.87;8.97;;;;;;;3.08;63.98;95263.50;5020633;28;20198;-84
2023/12/03 12:21:58;;;;;;;10.40;8.67;;;;;;;3.18;63.54;95236.31;5016905;28;20232;-84
2023/12/03 12:24:25;;;;;;;10.20;8.67;;;;;;;3.13;63.56;95235.94;5022174;28;20266;-85
2023/12/03 12:26:54;;;;;;;10.00;8.43;;;;;;;3.10;63.38;95210.78;5025649;28;20214;-88
2023/12/03 12:29:27;;;;;;;10.43;8.90;;;;;;;3.19;63.47;95216.78;5013762;28;20571;-87
2023/12/03 12:31:55;;;;;;;13.27;10.50;;;;;;;3.24;63.21;95207.00;5014685;28;20223;-86
2023/12/03 12:34:25;;;;;;;16.37;13.50;;;;;;;3.24;63.38;95212.88;5022144;28;20233;-87
2023/12/03 12:37:05;;;;;;;13.50;11.53;;;;;;;3.20;63.64;95218.38;5013455;28;20219;-86
2023/12/03 12:39:34;;;;;;;11.70;8.90;;;;;;;3.15;63.03;95208.63;5014893;28;20199;-85
2023/12/03 12:42:02;;;;;;;10.93;9.33;;;;;;;3.16;63.50;95227.22;5015205;28;20206;-85
2023/12/03 12:44:42;;;;;;;9.53;8.53;;;;;;;3.07;63.03;95195.81;5013966;28;20213;-85
2023/12/03 12:47:12;;;;;;;17.60;14.47;;;;;;;3.07;63.45;95198.38;5014883;28;20230;-85
2023/12/03 12:49:57;;;;;;;10.97;9.77;;;;;;;3.00;63.42;95195.56;5011996;28;20669;-85
2023/12/03 12:52:25;;;;;;;10.43;9.33;;;;;;;2.91;64.15;95239.59;5013226;28;20705;-85